Ana Sayfa
METAR-TAF:

METAR-TAF

Havaalanları :

Cidde, Suudi Arabistan

Enlem: 21-42N, Boylam: 039-11E, yükseklik: 15 m

Güncel hava durumu gözlemi

Rapor saat 04:00 UTC de 37 dakika önce yapıldı.
Rüzgar kuzey/kuzeybatıdan 5 kt
Sıcaklık 30°C
Nem 66%
Basınç 1001 hPa
Görüş mesafesi 10 km veya daha fazla
1500 m altında bulut yok ve kümülonimbus yok

METAR: OEJN 190400Z 34005KT CAVOK 30/23 Q1001 NOSIG

Saat: 07:37 (04:37 UTC)

Tahmin

Rapor saat 23:00 UTC de 5 saat ve 37 dakika önce yapıldı.
Ayın 19'si saat 00 UTC'den ayın 20'si saat 06 UTC'ye kadar geçerli Tahmin
Rüzgar değişken yönden 3 kt
Görüş mesafesi 10 km veya daha fazla
1500 m altında bulut yok ve kümülonimbus yok
Dönüşüyor
ayın 19'si saat 06 UTC'den ayın 19'si saat 08 UTC'ye kadar
Rüzgar batı/kuzeybatıdan 6 kt ve 16 kt'a kadar ani rüzgarlar

TAF: OEJN 182300Z 1900/2006 VRB03KT CAVOK BECMG 1906/1908 30006G16KT

4.000'den fazla havaalanı için hava durumu gözlemleri ve tahminleri (METAR ve TAF raporları).

Kullanılabilir istasyonlar harita üzerinde sarı ve kırmızı noktalarla gösterilir.

İstasyonun adını görmek için fareyi noktanın üzerinde gezdirin.

Sonrasında hava gözlem ve tahminlerini görmek için tıklayın.

Haritayı değiştirmek için: yaklaştırmak için siyah artı işaretli yeşil düğmeye ve uzaklaştırmak için de eksi işaretli düğmeye hızla tıklayın; bitişik haritalar için yeşil okları kullanın.


METAR-TAF: